createdAt,value
2023-04-07T00:02:37.729Z,95369.88
2023-04-07T00:05:23.560Z,95370.38
2023-04-07T00:08:09.249Z,95371.38
2023-04-07T00:10:54.965Z,95362.28
2023-04-07T00:13:40.707Z,95367.84
2023-04-07T00:16:26.690Z,95369.19
2023-04-07T00:19:12.656Z,95366.47
2023-04-07T00:21:58.626Z,95365.38
2023-04-07T00:24:44.743Z,95361.31
2023-04-07T00:27:31.052Z,95365.81
2023-04-07T00:30:17.921Z,95366.06
2023-04-07T00:33:04.195Z,95354.00
2023-04-07T00:35:57.973Z,95360.16
2023-04-07T00:38:44.173Z,95359.34
2023-04-07T00:41:29.821Z,95355.53
2023-04-07T00:44:16.198Z,95368.09
2023-04-07T00:47:02.710Z,95355.53
2023-04-07T00:49:49.318Z,95356.06
2023-04-07T00:52:36.172Z,95362.44
2023-04-07T00:55:22.001Z,95358.69
2023-04-07T00:58:08.071Z,95357.06
2023-04-07T01:01:09.343Z,95346.34
2023-04-07T01:04:02.459Z,95353.81
2023-04-07T01:06:51.150Z,95355.69
2023-04-07T01:09:51.256Z,95354.56
2023-04-07T01:12:47.336Z,95345.78
2023-04-07T01:15:35.089Z,95347.84
2023-04-07T01:18:25.396Z,95356.59
2023-04-07T01:21:14.472Z,95352.28
2023-04-07T01:24:39.264Z,95351.38
2023-04-07T01:27:33.161Z,95342.25
2023-04-07T01:30:19.702Z,95353.97
2023-04-07T01:33:06.528Z,95361.41
2023-04-07T01:35:53.550Z,95351.28
2023-04-07T01:38:39.838Z,95342.75
2023-04-07T01:41:26.409Z,95355.00
2023-04-07T01:44:12.303Z,95351.28
2023-04-07T01:46:58.768Z,95348.06
2023-04-07T01:49:45.555Z,95346.38
2023-04-07T01:52:33.344Z,95339.41
2023-04-07T01:55:19.366Z,95343.09
2023-04-07T01:58:20.591Z,95342.00
2023-04-07T02:01:06.796Z,95336.69
2023-04-07T02:04:22.741Z,95334.00
2023-04-07T02:07:20.375Z,95332.44
2023-04-07T02:10:12.557Z,95333.50
2023-04-07T02:12:58.912Z,95333.50
2023-04-07T02:15:45.914Z,95330.59
2023-04-07T02:18:32.508Z,95333.78
2023-04-07T02:21:18.884Z,95332.97
2023-04-07T02:24:08.374Z,95330.31
2023-04-07T02:26:54.157Z,95326.06
2023-04-07T02:29:40.986Z,95328.78
2023-04-07T02:32:26.997Z,95324.56
2023-04-07T02:35:12.978Z,95321.16
2023-04-07T02:38:01.640Z,95320.34
2023-04-07T02:40:47.651Z,95328.06
2023-04-07T02:43:33.516Z,95322.75
2023-04-07T02:46:19.357Z,95323.06
2023-04-07T02:49:04.917Z,95335.31
2023-04-07T02:51:50.880Z,95328.88
2023-04-07T02:54:36.863Z,95324.25
2023-04-07T02:57:23.031Z,95337.81
2023-04-07T03:00:12.501Z,95329.16
2023-04-07T03:03:19.875Z,95334.00
2023-04-07T03:06:18.524Z,95332.38
2023-04-07T03:09:16.611Z,95327.56
2023-04-07T03:12:02.691Z,95330.47
2023-04-07T03:14:52.829Z,95340.28
2023-04-07T03:17:40.906Z,95333.88
2023-04-07T03:20:27.341Z,95337.09
2023-04-07T03:23:13.694Z,95341.28
2023-04-07T03:25:59.443Z,95332.75
2023-04-07T03:28:49.610Z,95326.03
2023-04-07T03:31:37.788Z,95327.41
2023-04-07T03:34:23.522Z,95329.19
2023-04-07T03:37:09.318Z,95337.63
2023-04-07T03:39:57.388Z,95332.59
2023-04-07T03:42:46.826Z,95336.22
2023-04-07T03:45:33.957Z,95344.97
2023-04-07T03:48:20.551Z,95349.94
2023-04-07T03:51:21.717Z,95335.50
2023-04-07T03:54:11.995Z,95348.22
2023-04-07T03:57:02.356Z,95351.91
2023-04-07T03:59:51.298Z,95348.78
2023-04-07T04:02:38.272Z,95352.22
2023-04-07T04:05:25.509Z,95357.84
2023-04-07T04:08:11.977Z,95359.44
2023-04-07T04:11:00.058Z,95355.75
2023-04-07T04:13:52.982Z,95354.94
2023-04-07T04:16:39.175Z,95361.63
2023-04-07T04:19:35.839Z,95353.03
2023-04-07T04:22:29.191Z,95362.06
2023-04-07T04:25:17.510Z,95356.66
2023-04-07T04:28:07.432Z,95367.72
2023-04-07T04:30:54.598Z,95354.34
2023-04-07T04:33:40.723Z,95374.56
2023-04-07T04:36:27.739Z,95362.41
2023-04-07T04:39:18.239Z,95372.78
2023-04-07T04:42:05.667Z,95371.75
2023-04-07T04:44:55.418Z,95365.06
2023-04-07T04:47:43.314Z,95367.84
2023-04-07T04:50:30.825Z,95381.75
2023-04-07T04:53:22.281Z,95386.34
2023-04-07T04:56:13.667Z,95379.75
2023-04-07T04:59:04.958Z,95385.69
2023-04-07T05:02:11.643Z,95384.72
2023-04-07T05:04:58.042Z,95383.72
2023-04-07T05:07:47.467Z,95376.78
2023-04-07T05:10:41.511Z,95382.19
2023-04-07T05:13:32.102Z,95385.69
2023-04-07T05:16:20.973Z,95383.03
2023-04-07T05:19:07.278Z,95392.41
2023-04-07T05:21:53.810Z,95380.16
2023-04-07T05:24:41.677Z,95386.16
2023-04-07T05:27:27.451Z,95383.25
2023-04-07T05:30:17.744Z,95376.97
2023-04-07T05:33:03.891Z,95387.16
2023-04-07T05:36:00.639Z,95389.63
2023-04-07T05:38:46.534Z,95391.22
2023-04-07T05:41:36.587Z,95394.44
2023-04-07T05:44:23.260Z,95389.44
2023-04-07T05:47:11.524Z,95399.38
2023-04-07T05:49:58.711Z,95393.03
2023-04-07T05:52:45.285Z,95385.72
2023-04-07T05:55:45.987Z,95394.34
2023-04-07T05:58:40.630Z,95385.13
2023-04-07T06:01:29.282Z,95387.09
2023-04-07T06:04:15.419Z,95391.94
2023-04-07T06:07:02.495Z,95393.09
2023-04-07T06:09:48.212Z,95391.31
2023-04-07T06:12:34.099Z,95390.03
2023-04-07T06:15:19.780Z,95392.50
2023-04-07T06:18:05.727Z,95389.66
2023-04-07T06:20:52.091Z,95391.31
2023-04-07T06:23:37.712Z,95399.38
2023-04-07T06:26:26.336Z,95395.13
2023-04-07T06:29:15.200Z,95392.78
2023-04-07T06:32:02.566Z,95376.50
2023-04-07T06:34:48.665Z,95397.88
2023-04-07T06:37:34.354Z,95399.50
2023-04-07T06:40:20.012Z,95403.22
2023-04-07T06:43:06.338Z,95407.22
2023-04-07T06:46:01.781Z,95406.41
2023-04-07T06:48:47.647Z,95408.00
2023-04-07T06:51:33.496Z,95409.91
2023-04-07T06:54:19.116Z,95401.66
2023-04-07T06:57:05.221Z,95405.44
2023-04-07T06:59:51.277Z,95394.50
2023-04-07T07:02:37.414Z,95402.28
2023-04-07T07:05:23.685Z,95403.09
2023-04-07T07:08:09.570Z,95405.53
2023-04-07T07:11:27.422Z,95403.19
2023-04-07T07:14:13.395Z,95393.84
2023-04-07T07:16:59.419Z,95404.53
2023-04-07T07:19:48.590Z,95401.31
2023-04-07T07:22:34.182Z,95402.16
2023-04-07T07:25:20.119Z,95402.41
2023-04-07T07:29:18.122Z,95392.81
2023-04-07T07:32:04.262Z,95404.00
2023-04-07T07:34:50.108Z,95393.59
2023-04-07T07:37:39.937Z,95376.19
2023-04-07T07:40:29.703Z,95388.50
2023-04-07T07:43:15.451Z,95395.94
2023-04-07T07:46:01.265Z,95393.25
2023-04-07T07:48:47.273Z,95398.28
2023-04-07T07:51:33.022Z,95394.19
2023-04-07T07:54:22.856Z,95400.03
2023-04-07T07:57:09.035Z,95403.41
2023-04-07T07:59:54.923Z,95399.84
2023-04-07T08:02:40.800Z,95405.69
2023-04-07T08:05:26.914Z,95394.94
2023-04-07T08:08:12.967Z,95406.91
2023-04-07T08:10:59.051Z,95404.38
2023-04-07T08:13:46.752Z,95412.13
2023-04-07T08:16:33.450Z,95405.38
2023-04-07T08:19:19.261Z,95414.97
2023-04-07T08:22:05.062Z,95409.00
2023-04-07T08:24:50.999Z,95417.25
2023-04-07T08:27:37.046Z,95412.06
2023-04-07T08:30:22.788Z,95418.13
2023-04-07T08:33:08.741Z,95414.63
2023-04-07T08:35:54.450Z,95409.72
2023-04-07T08:38:40.603Z,95415.59
2023-04-07T08:41:42.422Z,95422.03
2023-04-07T08:44:37.214Z,95426.28
2023-04-07T08:47:23.850Z,95424.34
2023-04-07T08:50:11.487Z,95427.84
2023-04-07T08:52:57.710Z,95419.78
2023-04-07T08:55:43.211Z,95412.81
2023-04-07T08:58:46.625Z,95413.06
2023-04-07T09:01:32.580Z,95412.13
2023-04-07T09:04:18.584Z,95410.41
2023-04-07T09:07:04.486Z,95410.88
2023-04-07T09:09:50.807Z,95417.78
2023-04-07T09:12:39.120Z,95416.13
2023-04-07T09:15:26.101Z,95421.72
2023-04-07T09:18:11.990Z,95416.34
2023-04-07T09:21:46.892Z,95419.88
2023-04-07T09:24:32.644Z,95414.50
2023-04-07T09:27:23.179Z,95412.91
2023-04-07T09:30:17.477Z,95411.91
2023-04-07T09:33:03.501Z,95416.22
2023-04-07T09:35:56.937Z,95424.28
2023-04-07T09:39:08.528Z,95416.78
2023-04-07T09:42:07.927Z,95414.13
2023-04-07T09:44:59.831Z,95420.81
2023-04-07T09:48:20.940Z,95419.56
2023-04-07T09:51:12.774Z,95419.97
2023-04-07T09:53:58.593Z,95428.75
2023-04-07T09:56:44.941Z,95423.09
2023-04-07T09:59:32.356Z,95418.81
2023-04-07T10:02:18.376Z,95418.28
2023-04-07T10:05:04.896Z,95420.47
2023-04-07T10:07:51.546Z,95417.84
2023-04-07T10:10:42.944Z,95416.03
2023-04-07T10:13:32.969Z,95425.97
2023-04-07T10:16:19.314Z,95426.53
2023-04-07T10:19:06.428Z,95429.50
2023-04-07T10:21:53.754Z,95428.69
2023-04-07T10:29:15.219Z,95423.31
2023-04-07T10:32:02.515Z,95428.13
2023-04-07T10:34:51.234Z,95425.38
2023-04-07T10:37:37.515Z,95422.13
2023-04-07T10:40:30.239Z,95431.78
2023-04-07T10:43:40.905Z,95430.75
2023-04-07T10:46:49.606Z,95424.09
2023-04-07T10:49:36.047Z,95431.28
2023-04-07T10:52:23.406Z,95435.56
2023-04-07T10:55:29.027Z,95437.72
2023-04-07T10:58:19.265Z,95443.06
2023-04-07T11:01:08.575Z,95440.38
2023-04-07T11:03:59.651Z,95436.59
2023-04-07T11:06:48.503Z,95440.00
2023-04-07T11:09:34.540Z,95430.06
2023-04-07T11:12:24.175Z,95437.50
2023-04-07T11:15:22.247Z,95433.19
2023-04-07T11:18:18.592Z,95442.28
2023-04-07T11:21:06.414Z,95440.03
2023-04-07T11:23:52.385Z,95440.47
2023-04-07T11:26:40.231Z,95437.72
2023-04-07T11:29:30.759Z,95440.94
2023-04-07T11:32:16.841Z,95442.81
2023-04-07T11:35:07.029Z,95443.91
2023-04-07T11:37:59.841Z,95446.31
2023-04-07T11:40:47.098Z,95447.91
2023-04-07T11:43:34.195Z,95451.91
2023-04-07T11:46:20.052Z,95441.47
2023-04-07T11:49:13.879Z,95441.47
2023-04-07T11:52:09.529Z,95443.91
2023-04-07T11:54:55.544Z,95434.25
2023-04-07T11:57:41.730Z,95428.88
2023-04-07T12:00:28.216Z,95435.28
2023-04-07T12:03:14.682Z,95430.41
2023-04-07T12:06:02.432Z,95439.50
2023-04-07T12:08:48.515Z,95440.88
2023-04-07T12:11:36.027Z,95442.25
2023-04-07T12:14:22.328Z,95444.81
2023-04-07T12:17:21.232Z,95441.75
2023-04-07T12:20:07.913Z,95440.34
2023-04-07T12:22:54.032Z,95448.41
2023-04-07T12:25:40.006Z,95440.56
2023-04-07T12:28:25.629Z,95442.97
2023-04-07T12:31:11.466Z,95444.19
2023-04-07T12:33:57.046Z,95439.47
2023-04-07T12:36:43.803Z,95448.63
2023-04-07T12:39:29.714Z,95446.44
2023-04-07T12:42:15.548Z,95448.53
2023-04-07T12:45:01.458Z,95438.88
2023-04-07T12:47:47.551Z,95449.06
2023-04-07T12:50:36.449Z,95445.38
2023-04-07T12:53:23.681Z,95444.19
2023-04-07T12:56:09.515Z,95432.94
2023-04-07T12:58:55.234Z,95431.97
2023-04-07T13:01:41.260Z,95434.06
2023-04-07T13:04:30.437Z,95426.69
2023-04-07T13:07:16.365Z,95427.94
2023-04-07T13:10:02.972Z,95421.41
2023-04-07T13:12:49.007Z,95421.31
2023-04-07T13:15:34.812Z,95417.25
2023-04-07T13:18:20.511Z,95412.78
2023-04-07T13:21:38.203Z,95413.72
2023-04-07T13:24:12.242Z,95409.88
2023-04-07T13:26:59.596Z,95408.22
2023-04-07T13:29:45.851Z,95415.16
2023-04-07T13:32:31.762Z,95408.13
2023-04-07T13:35:18.002Z,95402.66
2023-04-07T13:38:04.085Z,95403.06
2023-04-07T13:40:49.832Z,95397.00
2023-04-07T13:43:35.794Z,95408.09
2023-04-07T13:46:28.628Z,95408.94
2023-04-07T13:49:15.184Z,95403.34
2023-04-07T13:52:00.849Z,95392.00
2023-04-07T13:54:46.480Z,95406.38
2023-04-07T13:57:32.303Z,95397.69
2023-04-07T14:00:18.618Z,95398.78
2023-04-07T14:03:04.697Z,95399.59
2023-04-07T14:05:50.800Z,95390.28
2023-04-07T14:08:36.689Z,95399.59
2023-04-07T14:11:22.721Z,95400.69
2023-04-07T14:14:08.740Z,95399.75
2023-04-07T14:16:54.925Z,95402.88
2023-04-07T14:19:40.786Z,95397.41
2023-04-07T14:22:26.673Z,95402.41
2023-04-07T14:25:12.421Z,95401.31
2023-04-07T14:27:58.274Z,95392.44
2023-04-07T14:30:44.387Z,95395.41
2023-04-07T14:33:30.647Z,95396.69
2023-04-07T14:36:19.313Z,95397.63
2023-04-07T14:39:05.486Z,95395.69
2023-04-07T14:41:52.759Z,95384.06
2023-04-07T14:44:45.952Z,95382.75
2023-04-07T14:47:31.708Z,95388.41
2023-04-07T14:50:17.585Z,95385.47
2023-04-07T14:53:03.792Z,95379.97
2023-04-07T14:55:49.935Z,95382.44
2023-04-07T14:58:37.624Z,95387.09
2023-04-07T15:01:23.429Z,95382.56
2023-04-07T15:04:09.293Z,95383.91
2023-04-07T15:06:56.226Z,95374.44
2023-04-07T15:09:41.958Z,95378.22
2023-04-07T15:12:29.841Z,95379.50
2023-04-07T15:15:16.689Z,95375.81
2023-04-07T15:18:04.108Z,95366.97
2023-04-07T15:20:50.279Z,95372.09
2023-04-07T15:23:37.888Z,95368.56
2023-04-07T15:26:23.774Z,95363.88
2023-04-07T15:29:09.434Z,95366.09
2023-04-07T15:31:55.638Z,95363.06
2023-04-07T15:34:41.589Z,95367.44
2023-04-07T15:37:27.480Z,95370.31
2023-04-07T15:40:14.479Z,95368.38
2023-04-07T15:43:00.954Z,95365.34
2023-04-07T15:45:47.923Z,95365.03
2023-04-07T15:48:33.689Z,95361.06
2023-04-07T15:51:19.462Z,95366.34
2023-04-07T15:54:05.402Z,95365.53
2023-04-07T15:56:51.937Z,95373.66
2023-04-07T15:59:37.573Z,95380.91
2023-04-07T16:02:24.716Z,95376.56
2023-04-07T16:05:10.648Z,95379.81
2023-04-07T16:07:56.651Z,95384.84
2023-04-07T16:10:42.697Z,95389.53
2023-04-07T16:13:28.466Z,95389.59
2023-04-07T16:16:14.270Z,95394.44
2023-04-07T16:19:00.109Z,95395.69
2023-04-07T16:21:46.065Z,95402.31
2023-04-07T16:24:31.944Z,95403.25
2023-04-07T16:27:17.544Z,95399.34
2023-04-07T16:30:06.978Z,95405.00
2023-04-07T16:32:52.829Z,95404.94
2023-04-07T16:35:39.008Z,95410.47
2023-04-07T16:38:24.849Z,95417.66
2023-04-07T16:41:11.060Z,95419.50
2023-04-07T16:43:57.168Z,95417.31
2023-04-07T16:46:42.767Z,95417.25
2023-04-07T16:49:28.505Z,95401.56
2023-04-07T16:52:14.295Z,95408.78
2023-04-07T16:55:00.778Z,95414.59
2023-04-07T16:57:46.678Z,95409.88
2023-04-07T17:00:32.602Z,95415.75
2023-04-07T17:03:18.473Z,95415.34
2023-04-07T17:06:07.449Z,95427.34
2023-04-07T17:08:53.395Z,95428.00
2023-04-07T17:11:41.184Z,95426.00
2023-04-07T17:14:26.867Z,95439.06
2023-04-07T17:17:13.076Z,95434.34
2023-04-07T17:20:00.579Z,95435.53
2023-04-07T17:22:49.146Z,95433.25
2023-04-07T17:25:35.508Z,95435.22
2023-04-07T17:28:21.945Z,95432.09
2023-04-07T17:31:07.848Z,95439.16
2023-04-07T17:33:53.881Z,95449.41
2023-04-07T17:36:40.973Z,95449.50
2023-04-07T17:39:26.908Z,95455.47
2023-04-07T17:42:12.723Z,95458.22
2023-04-07T17:45:04.961Z,95459.94
2023-04-07T17:47:53.365Z,95468.56
2023-04-07T17:50:42.507Z,95467.25
2023-04-07T17:53:29.751Z,95483.41
2023-04-07T17:56:15.763Z,95477.88
2023-04-07T17:59:01.591Z,95494.13
2023-04-07T18:01:47.531Z,95495.78
2023-04-07T18:04:33.882Z,95496.94
2023-04-07T18:07:20.995Z,95505.06
2023-04-07T18:10:07.317Z,95508.06
2023-04-07T18:12:53.070Z,95511.81
2023-04-07T18:15:38.735Z,95513.00
2023-04-07T18:18:24.719Z,95516.78
2023-04-07T18:21:10.857Z,95510.16
2023-04-07T18:23:56.507Z,95518.22
2023-04-07T18:26:44.513Z,95524.09
2023-04-07T18:29:38.638Z,95525.47
2023-04-07T18:32:24.777Z,95531.66
2023-04-07T18:35:10.450Z,95530.56
2023-04-07T18:37:57.191Z,95528.97
2023-04-07T18:40:44.077Z,95521.00
2023-04-07T18:43:38.438Z,95537.63
2023-04-07T18:46:24.628Z,95530.66
2023-04-07T18:49:10.511Z,95536.56
2023-04-07T18:51:56.293Z,95540.94
2023-04-07T18:54:41.981Z,95545.28
2023-04-07T18:57:28.228Z,95550.97
2023-04-07T19:00:14.033Z,95560.88
2023-04-07T19:02:59.938Z,95556.06
2023-04-07T19:05:47.779Z,95568.94
2023-04-07T19:08:33.969Z,95570.31
2023-04-07T19:11:19.700Z,95578.91
2023-04-07T19:14:06.044Z,95566.34
2023-04-07T19:16:52.163Z,95584.56
2023-04-07T19:19:37.755Z,95578.66
2023-04-07T19:22:23.530Z,95579.47
2023-04-07T19:25:09.399Z,95578.66
2023-04-07T19:27:55.366Z,95581.41
2023-04-07T19:30:41.080Z,95580.63
2023-04-07T19:33:26.921Z,95581.97
2023-04-07T19:36:12.981Z,95579.06
2023-04-07T19:38:58.901Z,95577.75
2023-04-07T19:41:44.807Z,95581.53
2023-04-07T19:44:31.983Z,95580.47
2023-04-07T19:47:17.598Z,95573.47
2023-04-07T19:50:04.416Z,95581.53
2023-04-07T19:52:53.326Z,95585.28
2023-04-07T19:55:46.164Z,95583.69
2023-04-07T19:58:32.916Z,95577.22
2023-04-07T20:01:19.145Z,95581.81
2023-04-07T20:04:05.418Z,95581.00
2023-04-07T20:06:51.270Z,95585.59
2023-04-07T20:09:37.545Z,95582.72
2023-04-07T20:12:24.308Z,95588.66
2023-04-07T20:15:11.201Z,95585.22
2023-04-07T20:17:56.977Z,95587.72
2023-04-07T20:20:42.896Z,95584.50
2023-04-07T20:23:28.816Z,95581.84
2023-04-07T20:26:14.963Z,95582.97
2023-04-07T20:29:00.895Z,95584.59
2023-04-07T20:31:46.969Z,95584.66
2023-04-07T20:34:32.985Z,95593.78
2023-04-07T20:37:19.704Z,95592.75
2023-04-07T20:40:06.437Z,95584.47
2023-04-07T20:42:52.078Z,95593.31
2023-04-07T20:45:38.374Z,95586.38
2023-04-07T20:48:24.435Z,95592.00
2023-04-07T20:51:14.329Z,95590.19
2023-04-07T20:54:00.010Z,95587.53
2023-04-07T20:56:45.721Z,95591.00
2023-04-07T20:59:32.720Z,95596.97
2023-04-07T21:02:18.827Z,95599.94
2023-04-07T21:05:05.173Z,95600.47
2023-04-07T21:07:50.830Z,95603.44
2023-04-07T21:10:36.755Z,95591.41
2023-04-07T21:13:38.118Z,95605.09
2023-04-07T21:16:23.967Z,95597.91
2023-04-07T21:19:09.689Z,95601.66
2023-04-07T21:21:55.724Z,95587.22
2023-04-07T21:24:41.752Z,95594.47
2023-04-07T21:27:29.457Z,95597.94
2023-04-07T21:30:16.676Z,95592.31
2023-04-07T21:33:02.572Z,95594.16
2023-04-07T21:35:49.524Z,95592.00
2023-04-07T21:38:35.825Z,95595.22
2023-04-07T21:41:22.034Z,95600.59
2023-04-07T21:44:10.296Z,95592.53
2023-04-07T21:47:01.426Z,95590.34
2023-04-07T21:50:11.366Z,95596.25
2023-04-07T21:52:57.170Z,95594.63
2023-04-07T21:55:43.196Z,95597.25
2023-04-07T21:58:29.146Z,95596.72
2023-04-07T22:01:15.039Z,95584.38
2023-04-07T22:04:00.603Z,95587.06
2023-04-07T22:06:51.570Z,95590.31
2023-04-07T22:09:37.225Z,95587.09
2023-04-07T22:12:22.850Z,95592.47
2023-04-07T22:15:09.427Z,95581.75
2023-04-07T22:17:56.527Z,95592.47
2023-04-07T22:20:42.327Z,95591.41
2023-04-07T22:23:41.589Z,95584.97
2023-04-07T22:27:45.575Z,95586.59
2023-04-07T22:30:37.454Z,95590.88
2023-04-07T22:33:23.210Z,95580.13
2023-04-07T22:36:09.182Z,95582.75
2023-04-07T22:38:54.964Z,95584.38
2023-04-07T22:41:41.099Z,95583.56
2023-04-07T22:44:32.123Z,95571.75
2023-04-07T22:47:18.290Z,95573.34
2023-04-07T22:50:14.450Z,95579.53
2023-04-07T22:53:00.592Z,95576.78
2023-04-07T22:55:47.244Z,95573.03
2023-04-07T22:58:33.335Z,95568.19
2023-04-07T23:01:19.182Z,95568.19
2023-04-07T23:04:06.430Z,95563.91
2023-04-07T23:06:53.209Z,95560.19
2023-04-07T23:09:38.886Z,95562.34
2023-04-07T23:12:24.678Z,95556.19
2023-04-07T23:15:10.888Z,95552.16
2023-04-07T23:17:56.860Z,95555.38
2023-04-07T23:20:50.163Z,95553.81
2023-04-07T23:23:39.134Z,95540.69
2023-04-07T23:26:34.363Z,95546.91
2023-04-07T23:29:21.796Z,95551.75
2023-04-07T23:32:08.139Z,95550.22
2023-04-07T23:34:54.342Z,95529.34
2023-04-07T23:37:42.358Z,95543.78
2023-04-07T23:40:28.082Z,95540.09
2023-04-07T23:43:13.788Z,95537.47
2023-04-07T23:46:00.175Z,95538.00
2023-04-07T23:48:45.976Z,95541.78
2023-04-07T23:51:32.280Z,95540.72
2023-04-07T23:54:18.408Z,95547.75
2023-04-07T23:57:04.240Z,95540.78
2023-04-07T23:59:49.758Z,95543.50
